createdAt,value
2023-01-11T00:01:11.442Z,78.63
2023-01-11T00:03:38.929Z,87.75
2023-01-11T00:06:08.039Z,84.22
2023-01-11T00:08:34.904Z,85.75
2023-01-11T00:11:02.449Z,71.95
2023-01-11T00:13:30.421Z,76.53
2023-01-11T00:15:57.485Z,70.95
2023-01-11T00:18:24.401Z,82.18
2023-01-11T00:20:51.349Z,75.97
2023-01-11T00:23:18.349Z,79.10
2023-01-11T00:25:45.408Z,74.60
2023-01-11T00:28:12.395Z,78.60
2023-01-11T00:30:39.346Z,79.50
2023-01-11T00:33:06.245Z,75.55
2023-01-11T00:35:35.478Z,78.78
2023-01-11T00:38:02.339Z,93.78
2023-01-11T00:40:29.266Z,76.57
2023-01-11T00:43:14.816Z,73.05
2023-01-11T00:46:00.580Z,78.05
2023-01-11T00:48:27.518Z,75.25
2023-01-11T00:50:57.094Z,82.30
2023-01-11T00:53:23.909Z,71.53
2023-01-11T00:55:50.771Z,69.85
2023-01-11T00:58:17.756Z,71.03
2023-01-11T01:00:44.729Z,77.72
2023-01-11T01:03:11.636Z,83.75
2023-01-11T01:05:39.342Z,72.15
2023-01-11T01:08:06.698Z,70.93
2023-01-11T01:10:33.599Z,70.53
2023-01-11T01:13:21.209Z,78.97
2023-01-11T01:15:48.138Z,67.93
2023-01-11T01:18:15.048Z,67.03
2023-01-11T01:20:41.898Z,66.22
2023-01-11T01:23:08.838Z,68.93
2023-01-11T01:25:38.043Z,70.05
2023-01-11T01:28:05.167Z,79.43
2023-01-11T01:30:32.160Z,73.70
2023-01-11T01:32:59.144Z,84.55
2023-01-11T01:35:26.148Z,74.10
2023-01-11T01:37:53.207Z,77.10
2023-01-11T01:40:20.206Z,72.15
2023-01-11T01:42:47.171Z,101.45
2023-01-11T01:45:24.084Z,71.65
2023-01-11T01:47:58.005Z,73.72
2023-01-11T01:50:36.199Z,74.75
2023-01-11T01:53:08.739Z,65.68
2023-01-11T01:55:39.610Z,75.97
2023-01-11T01:58:10.672Z,64.65
2023-01-11T02:03:09.757Z,68.13
2023-01-11T02:05:36.718Z,71.32
2023-01-11T02:08:08.394Z,62.72
2023-01-11T02:10:35.357Z,70.35
2023-01-11T02:13:09.725Z,63.08
2023-01-11T02:15:37.006Z,63.05
2023-01-11T02:18:05.300Z,67.65
2023-01-11T02:20:59.347Z,64.93
2023-01-11T02:24:09.975Z,54.97
2023-01-11T02:27:00.758Z,69.13
2023-01-11T02:29:48.740Z,78.95
2023-01-11T02:32:25.579Z,62.08
2023-01-11T02:35:00.783Z,67.80
2023-01-11T02:37:27.592Z,64.32
2023-01-11T02:40:16.032Z,67.13
2023-01-11T02:43:12.713Z,64.13
2023-01-11T02:46:20.647Z,63.22
2023-01-11T02:48:53.336Z,70.40
2023-01-11T02:51:33.833Z,89.32
2023-01-11T02:54:08.442Z,80.18
2023-01-11T02:56:42.536Z,79.18
2023-01-11T02:59:15.698Z,75.35
2023-01-11T03:01:51.677Z,67.72
2023-01-11T03:04:30.691Z,70.68
2023-01-11T03:07:18.633Z,70.13
2023-01-11T03:09:57.230Z,70.97
2023-01-11T03:12:57.183Z,68.10
2023-01-11T03:15:30.376Z,63.10
2023-01-11T03:18:27.256Z,69.85
2023-01-11T03:21:24.591Z,66.32
2023-01-11T03:24:11.518Z,69.30
2023-01-11T03:26:39.096Z,86.18
2023-01-11T03:29:23.031Z,71.15
2023-01-11T03:31:53.854Z,72.93
2023-01-11T03:34:39.341Z,82.35
2023-01-11T03:37:31.235Z,75.43
2023-01-11T03:40:19.399Z,74.15
2023-01-11T03:43:09.411Z,74.55
2023-01-11T03:45:50.006Z,82.53
2023-01-11T03:48:51.884Z,79.15
2023-01-11T03:51:28.516Z,69.90
2023-01-11T03:54:02.011Z,72.97
2023-01-11T03:56:56.378Z,67.22
2023-01-11T03:59:23.283Z,65.68
2023-01-11T04:01:52.540Z,75.93
2023-01-11T04:04:19.430Z,69.55
2023-01-11T04:06:46.518Z,68.25
2023-01-11T04:09:13.367Z,71.70
2023-01-11T04:11:40.203Z,74.22
2023-01-11T04:14:07.212Z,70.32
2023-01-11T04:16:34.071Z,64.88
2023-01-11T04:19:02.982Z,70.30
2023-01-11T04:21:30.321Z,72.45
2023-01-11T04:23:57.316Z,72.28
2023-01-11T04:26:24.249Z,63.05
2023-01-11T04:28:53.401Z,61.10
2023-01-11T04:31:21.475Z,57.22
2023-01-11T04:33:48.501Z,58.65
2023-01-11T04:36:15.518Z,63.13
2023-01-11T04:38:42.367Z,50.13
2023-01-11T04:41:28.334Z,52.92
2023-01-11T04:43:56.525Z,55.15
2023-01-11T04:46:24.892Z,60.50
2023-01-11T04:48:53.302Z,57.85
2023-01-11T04:51:20.305Z,57.85
2023-01-11T04:53:51.811Z,57.13
2023-01-11T04:56:18.713Z,51.67
2023-01-11T04:58:46.280Z,55.88
2023-01-11T05:01:17.388Z,50.42
2023-01-11T05:03:45.484Z,56.42
2023-01-11T05:06:13.600Z,52.45
2023-01-11T05:08:41.176Z,57.22
2023-01-11T05:11:08.634Z,56.15
2023-01-11T05:13:45.136Z,55.92
2023-01-11T05:16:19.561Z,60.35
2023-01-11T05:18:49.290Z,53.53
2023-01-11T05:21:18.437Z,56.20
2023-01-11T05:23:45.461Z,51.75
2023-01-11T05:26:20.176Z,48.72
2023-01-11T05:28:47.259Z,55.25
2023-01-11T05:31:14.318Z,53.05
2023-01-11T05:33:41.539Z,56.05
2023-01-11T05:36:12.853Z,55.03
2023-01-11T05:38:40.031Z,54.78
2023-01-11T05:41:09.402Z,53.83
2023-01-11T05:43:56.101Z,52.25
2023-01-11T05:46:23.534Z,50.15
2023-01-11T05:48:50.815Z,51.80
2023-01-11T05:51:17.735Z,53.85
2023-01-11T05:53:47.391Z,50.70
2023-01-11T05:56:14.327Z,51.63
2023-01-11T05:58:41.266Z,55.80
2023-01-11T06:01:08.208Z,48.40
2023-01-11T06:03:35.165Z,49.22
2023-01-11T06:06:02.069Z,51.38
2023-01-11T06:08:29.025Z,50.53
2023-01-11T06:10:56.968Z,46.50
2023-01-11T06:13:28.302Z,51.08
2023-01-11T06:16:04.109Z,46.45
2023-01-11T06:18:33.197Z,47.38
2023-01-11T06:21:01.270Z,50.28
2023-01-11T06:23:29.793Z,45.80
2023-01-11T06:25:56.690Z,44.55
2023-01-11T06:28:23.557Z,37.33
2023-01-11T06:30:54.771Z,40.80
2023-01-11T06:33:23.720Z,43.72
2023-01-11T06:35:50.654Z,53.63
2023-01-11T06:38:19.383Z,40.38
2023-01-11T06:40:56.624Z,45.63
2023-01-11T06:43:25.212Z,42.17
2023-01-11T06:45:52.849Z,46.65
2023-01-11T06:48:20.921Z,46.42
2023-01-11T06:50:49.324Z,43.08
2023-01-11T06:53:16.410Z,46.17
2023-01-11T06:55:44.280Z,43.30
2023-01-11T06:58:11.175Z,42.63
2023-01-11T07:00:38.437Z,42.25
2023-01-11T07:03:06.724Z,37.58
2023-01-11T07:05:34.718Z,36.90
2023-01-11T07:08:01.984Z,39.38
2023-01-11T07:10:29.041Z,42.10
2023-01-11T07:12:55.974Z,39.90
2023-01-11T07:15:22.992Z,39.10
2023-01-11T07:17:55.192Z,41.28
2023-01-11T07:20:23.258Z,37.97
2023-01-11T07:22:51.148Z,38.35
2023-01-11T07:25:18.650Z,37.13
2023-01-11T07:27:45.602Z,33.53
2023-01-11T07:30:12.901Z,34.50
2023-01-11T07:32:40.413Z,33.30
2023-01-11T07:35:07.738Z,34.80
2023-01-11T07:37:37.723Z,36.92
2023-01-11T07:40:05.373Z,37.80
2023-01-11T07:42:50.707Z,32.53
2023-01-11T07:45:17.924Z,38.97
2023-01-11T07:47:44.820Z,32.65
2023-01-11T07:50:11.894Z,35.95
2023-01-11T07:52:38.855Z,35.92
2023-01-11T07:55:06.121Z,35.35
2023-01-11T07:57:34.936Z,35.55
2023-01-11T08:00:01.896Z,35.65
2023-01-11T08:02:28.889Z,36.22
2023-01-11T08:04:56.115Z,36.00
2023-01-11T08:07:23.005Z,37.08
2023-01-11T08:09:49.956Z,39.38
2023-01-11T08:12:36.249Z,38.38
2023-01-11T08:15:03.553Z,36.28
2023-01-11T08:17:30.697Z,39.55
2023-01-11T08:19:57.792Z,35.47
2023-01-11T08:22:24.785Z,33.20
2023-01-11T08:24:51.638Z,35.88
2023-01-11T08:27:18.538Z,35.58
2023-01-11T08:29:45.529Z,34.20
2023-01-11T08:32:13.330Z,34.50
2023-01-11T08:34:40.688Z,36.55
2023-01-11T08:37:07.603Z,35.85
2023-01-11T08:39:34.609Z,34.83
2023-01-11T08:42:03.199Z,35.60
2023-01-11T08:44:34.496Z,36.85
2023-01-11T08:47:03.023Z,38.58
2023-01-11T08:49:30.768Z,35.72
2023-01-11T08:51:57.890Z,34.60
2023-01-11T08:54:25.262Z,35.28
2023-01-11T08:56:52.200Z,42.17
2023-01-11T08:59:20.147Z,34.30
2023-01-11T09:01:47.475Z,40.10
2023-01-11T09:04:24.340Z,33.53
2023-01-11T09:06:52.909Z,36.50
2023-01-11T09:09:19.850Z,37.85
2023-01-11T09:11:56.689Z,40.10
2023-01-11T09:14:25.583Z,38.15
2023-01-11T09:16:53.529Z,34.20
2023-01-11T09:19:20.892Z,38.17
2023-01-11T09:21:48.492Z,39.70
2023-01-11T09:24:15.492Z,37.88
2023-01-11T09:26:43.634Z,34.10
2023-01-11T09:29:11.793Z,38.75
2023-01-11T09:31:38.884Z,37.45
2023-01-11T09:34:07.226Z,43.05
2023-01-11T09:36:36.350Z,40.85
2023-01-11T09:39:07.753Z,32.47
2023-01-11T09:42:10.340Z,38.47
2023-01-11T09:44:49.977Z,36.90
2023-01-11T09:47:36.749Z,34.78
2023-01-11T09:50:12.284Z,34.25
2023-01-11T09:52:45.296Z,35.83
2023-01-11T09:55:16.485Z,38.65
2023-01-11T09:58:00.690Z,35.38
2023-01-11T10:00:44.432Z,39.55
2023-01-11T10:03:33.218Z,33.83
2023-01-11T10:06:26.712Z,35.60
2023-01-11T10:18:33.080Z,37.83
2023-01-11T10:18:49.758Z,36.70
2023-01-11T10:21:23.515Z,38.20
2023-01-11T10:24:03.205Z,38.88
2023-01-11T10:26:42.135Z,42.35
2023-01-11T10:30:07.298Z,37.53
2023-01-11T10:32:54.404Z,37.22
2023-01-11T10:35:47.885Z,36.97
2023-01-11T10:38:50.099Z,34.97
2023-01-11T10:41:30.019Z,36.78
2023-01-11T10:44:13.121Z,38.10
2023-01-11T10:46:46.166Z,37.90
2023-01-11T10:49:34.576Z,40.20
2023-01-11T10:52:33.713Z,35.85
2023-01-11T10:55:04.154Z,34.58
2023-01-11T10:57:59.192Z,34.85
2023-01-11T11:00:51.667Z,34.45
2023-01-11T11:05:55.904Z,39.45
2023-01-11T11:08:34.802Z,38.28
2023-01-11T11:11:18.370Z,37.70
2023-01-11T11:14:14.674Z,32.80
2023-01-11T11:17:07.239Z,34.65
2023-01-11T11:19:35.849Z,29.92
2023-01-11T11:22:03.229Z,34.00
2023-01-11T11:24:41.558Z,29.40
2023-01-11T11:27:29.215Z,34.60
2023-01-11T11:29:57.257Z,34.30
2023-01-11T11:32:53.440Z,30.48
2023-01-11T11:35:31.126Z,33.95
2023-01-11T11:37:58.505Z,30.33
2023-01-11T11:40:38.165Z,32.58
2023-01-11T11:43:22.677Z,31.02
2023-01-11T11:45:58.744Z,32.42
2023-01-11T11:48:29.134Z,31.90
2023-01-11T11:51:01.404Z,28.90
2023-01-11T11:53:46.160Z,30.85
2023-01-11T11:56:30.022Z,32.35
2023-01-11T11:58:58.630Z,29.20
2023-01-11T12:01:33.619Z,29.35
2023-01-11T12:04:22.479Z,31.88
2023-01-11T12:07:12.678Z,28.88
2023-01-11T12:09:42.638Z,28.38
2023-01-11T12:12:19.353Z,32.67
2023-01-11T12:15:06.277Z,31.98
2023-01-11T12:17:33.259Z,30.52
2023-01-11T12:20:00.514Z,31.50
2023-01-11T12:22:29.272Z,25.95
2023-01-11T12:25:16.940Z,30.08
2023-01-11T12:28:02.759Z,32.63
2023-01-11T12:30:41.486Z,27.95
2023-01-11T12:33:22.430Z,32.97
2023-01-11T12:36:04.974Z,28.98
2023-01-11T12:38:41.649Z,28.23
2023-01-11T12:41:45.469Z,34.58
2023-01-11T12:44:40.653Z,27.13
2023-01-11T12:47:17.979Z,32.53
2023-01-11T12:50:00.840Z,28.95
2023-01-11T12:52:36.893Z,33.95
2023-01-11T12:55:39.315Z,32.17
2023-01-11T12:58:23.934Z,31.20
2023-01-11T13:01:12.956Z,28.50
2023-01-11T13:04:05.947Z,28.92
2023-01-11T13:07:09.737Z,28.63
2023-01-11T13:09:42.387Z,34.20
2023-01-11T13:12:29.820Z,31.23
2023-01-11T13:15:26.916Z,28.10
2023-01-11T13:18:19.254Z,35.47
2023-01-11T13:21:14.405Z,31.55
2023-01-11T13:23:53.505Z,34.65
2023-01-11T13:26:36.020Z,30.35
2023-01-11T13:29:06.784Z,27.88
2023-01-11T13:31:38.869Z,31.52
2023-01-11T13:34:28.803Z,29.08
2023-01-11T13:37:17.863Z,29.52
2023-01-11T13:39:44.796Z,31.98
2023-01-11T13:42:21.480Z,30.83
2023-01-11T13:45:04.721Z,32.78
2023-01-11T13:47:39.390Z,27.50
2023-01-11T13:50:30.287Z,28.40
2023-01-11T13:53:12.079Z,27.48
2023-01-11T13:55:57.611Z,29.90
2023-01-11T13:59:03.584Z,32.25
2023-01-11T14:01:56.353Z,35.58
2023-01-11T14:04:33.243Z,30.20
2023-01-11T14:07:13.414Z,30.70
2023-01-11T14:10:16.733Z,32.80
2023-01-11T14:13:07.934Z,28.42
2023-01-11T14:18:46.349Z,31.10
2023-01-11T14:21:30.720Z,29.42
2023-01-11T14:23:58.630Z,26.90
2023-01-11T14:26:40.808Z,30.13
2023-01-11T14:29:33.833Z,28.00
2023-01-11T14:32:24.602Z,28.05
2023-01-11T14:34:57.598Z,33.13
2023-01-11T14:37:31.063Z,27.92
2023-01-11T14:40:19.467Z,30.27
2023-01-11T14:43:05.435Z,29.70
2023-01-11T14:46:00.038Z,27.88
2023-01-11T14:48:47.311Z,33.53
2023-01-11T14:51:25.907Z,29.05
2023-01-11T14:54:10.658Z,33.28
2023-01-11T14:56:57.982Z,27.63
2023-01-11T14:59:39.893Z,26.50
2023-01-11T15:02:15.577Z,33.00
2023-01-11T15:04:55.509Z,31.67
2023-01-11T15:07:34.733Z,34.60
2023-01-11T15:10:25.873Z,30.40
2023-01-11T15:15:45.883Z,29.83
2023-01-11T15:18:20.084Z,30.67
2023-01-11T15:20:58.811Z,29.45
2023-01-11T15:23:26.346Z,28.63
2023-01-11T15:26:06.935Z,28.58
2023-01-11T15:28:56.094Z,31.23
2023-01-11T15:32:04.488Z,29.02
2023-01-11T15:34:31.427Z,30.48
2023-01-11T15:37:02.037Z,27.20
2023-01-11T15:39:53.637Z,26.35
2023-01-11T15:42:48.182Z,30.80
2023-01-11T15:46:00.751Z,29.98
2023-01-11T15:48:48.934Z,26.10
2023-01-11T15:51:58.147Z,25.35
2023-01-11T15:54:30.860Z,28.15
2023-01-11T15:57:23.096Z,28.58
2023-01-11T16:00:25.313Z,29.08
2023-01-11T16:03:25.991Z,29.65
2023-01-11T16:06:19.607Z,29.67
2023-01-11T16:08:51.565Z,28.15
2023-01-11T16:11:45.335Z,29.90
2023-01-11T16:14:39.746Z,29.92
2023-01-11T16:17:13.828Z,28.08
2023-01-11T16:19:44.849Z,27.70
2023-01-11T16:22:17.213Z,27.42
2023-01-11T16:24:47.555Z,29.58
2023-01-11T16:27:28.129Z,26.40
2023-01-11T16:29:56.063Z,30.90
2023-01-11T16:32:32.840Z,25.20
2023-01-11T16:35:16.172Z,34.58
2023-01-11T16:37:46.095Z,30.10
2023-01-11T16:40:18.418Z,31.88
2023-01-11T16:43:31.723Z,29.98
2023-01-11T16:46:03.650Z,30.10
2023-01-11T16:48:34.524Z,30.67
2023-01-11T16:51:25.950Z,30.02
2023-01-11T16:53:59.615Z,27.50
2023-01-11T16:56:43.995Z,29.58
2023-01-11T16:59:30.713Z,29.35
2023-01-11T17:02:09.859Z,29.92
2023-01-11T17:05:05.124Z,30.38
2023-01-11T17:10:26.168Z,28.05
2023-01-11T17:13:55.191Z,31.40
2023-01-11T17:16:34.989Z,36.33
2023-01-11T17:19:24.218Z,28.02
2023-01-11T17:22:09.525Z,26.15
2023-01-11T17:24:49.671Z,26.70
2023-01-11T17:27:47.244Z,29.53
2023-01-11T17:30:31.223Z,26.63
2023-01-11T17:33:11.561Z,28.25
2023-01-11T17:35:45.261Z,26.77
2023-01-11T17:38:20.818Z,29.45
2023-01-11T17:40:51.877Z,26.27
